RYR46T LEVC-LEMD
Flight info
| Callsign | RYR46T |
|---|---|
| Flight time | 0h 29m |
| Altitude | 26000 |
| Route | CENTA N733 PRADO |
| Aircraft | B38M/M-SDE1FGHILORVWXY/HB1 |
Departure
| Time | 2026-04-30 17:47 |
|---|---|
| Airport | Valencia Airport (LEVC) |
Arrival
| Time | 2026-04-30 18:16 |
|---|---|
| Airport | Adolfo Suárez Madrid–Barajas Airport (LEMD) |
| Time | Latitude | Longitude | Altitude | Speed | Heading |
|---|---|---|---|---|---|
| 2026-04-30 17:46 | 39.37252 | -0.46099 | 11200 ft | 289 kts | 311° |
| 2026-04-30 17:47 | 39.42091 | -0.54541 | 13205 ft | 301 kts | 306° |
| 2026-04-30 17:48 | 39.47248 | -0.63928 | 15201 ft | 329 kts | 305° |
| 2026-04-30 17:48 | 39.51227 | -0.71210 | 16838 ft | 337 kts | 304° |
| 2026-04-30 17:49 | 39.56700 | -0.81258 | 19041 ft | 348 kts | 304° |
| 2026-04-30 17:50 | 39.62336 | -0.91638 | 21240 ft | 359 kts | 304° |
| 2026-04-30 17:51 | 39.66697 | -0.99693 | 22731 ft | 373 kts | 304° |
| 2026-04-30 17:52 | 39.71267 | -1.08157 | 23930 ft | 392 kts | 304° |
| 2026-04-30 17:53 | 39.79293 | -1.23077 | 25928 ft | 414 kts | 304° |
| 2026-04-30 17:54 | 39.86039 | -1.35671 | 26074 ft | 434 kts | 304° |
| 2026-04-30 17:55 | 39.92641 | -1.49070 | 26073 ft | 448 kts | 297° |
| 2026-04-30 17:56 | 39.98740 | -1.63386 | 26074 ft | 458 kts | 298° |
| 2026-04-30 17:57 | 40.03397 | -1.74295 | 26067 ft | 448 kts | 298° |
| 2026-04-30 17:58 | 40.07818 | -1.84677 | 26075 ft | 437 kts | 297° |
| 2026-04-30 17:59 | 40.13626 | -1.98371 | 24501 ft | 422 kts | 298° |
| 2026-04-30 18:00 | 40.17816 | -2.12124 | 21624 ft | 402 kts | 272° |
| 2026-04-30 18:00 | 40.18468 | -2.22905 | 19469 ft | 392 kts | 275° |
| 2026-04-30 18:01 | 40.19008 | -2.29827 | 18452 ft | 376 kts | 275° |
| 2026-04-30 18:02 | 40.19818 | -2.39800 | 16744 ft | 361 kts | 276° |
| 2026-04-30 18:02 | 40.20625 | -2.49487 | 15251 ft | 357 kts | 276° |
| 2026-04-30 18:03 | 40.21419 | -2.59029 | 13881 ft | 346 kts | 276° |
| 2026-04-30 18:04 | 40.22162 | -2.68034 | 12837 ft | 319 kts | 276° |
| 2026-04-30 18:05 | 40.23077 | -2.79231 | 11641 ft | 307 kts | 276° |
| 2026-04-30 18:06 | 40.23957 | -2.90137 | 10437 ft | 291 kts | 276° |
| 2026-04-30 18:07 | 40.24782 | -3.00475 | 9311 ft | 284 kts | 275° |
| 2026-04-30 18:08 | 40.25388 | -3.08142 | 8558 ft | 280 kts | 276° |
| 2026-04-30 18:09 | 40.26420 | -3.18179 | 7513 ft | 276 kts | 280° |
| 2026-04-30 18:10 | 40.27689 | -3.27781 | 6510 ft | 257 kts | 279° |
| 2026-04-30 18:11 | 40.29433 | -3.36404 | 5532 ft | 236 kts | 290° |
| 2026-04-30 18:11 | 40.32282 | -3.41186 | 4841 ft | 220 kts | 321° |
| 2026-04-30 18:12 | 40.35718 | -3.44666 | 4125 ft | 192 kts | 322° |
| 2026-04-30 18:13 | 40.37620 | -3.46588 | 3997 ft | 165 kts | 323° |
| 2026-04-30 18:13 | 40.39939 | -3.48935 | 3548 ft | 153 kts | 322° |
| 2026-04-30 18:14 | 40.41905 | -3.50925 | 3064 ft | 152 kts | 322° |
| 2026-04-30 18:15 | 40.44402 | -3.53468 | 2427 ft | 153 kts | 321° |
| 2026-04-30 18:15 | 40.46817 | -3.55914 | 1957 ft | 121 kts | 323° |
| 2026-04-30 18:16 | 40.47477 | -3.56627 | 1977 ft | 24 kts | 304° |
| 2026-04-30 18:16 | 40.47589 | -3.56885 | 1986 ft | 9 kts | 295° |
| 2026-04-30 18:17 | 40.47607 | -3.56936 | 1988 ft | 3 kts | 291° |
| 2026-04-30 18:17 | 40.47616 | -3.56964 | 1989 ft | 5 kts | 297° |
| 2026-04-30 18:17 | 40.47686 | -3.57065 | 1994 ft | 9 kts | 329° |
| 2026-04-30 18:18 | 40.47742 | -3.57118 | 1996 ft | 10 kts | 325° |
| 2026-04-30 18:18 | 40.47812 | -3.57187 | 1998 ft | 14 kts | 323° |
| 2026-04-30 18:18 | 40.47894 | -3.57273 | 2000 ft | 13 kts | 317° |
| 2026-04-30 18:18 | 40.47895 | -3.57346 | 2003 ft | 6 kts | 197° |
| 2026-04-30 18:19 | 40.47845 | -3.57330 | 2004 ft | 8 kts | 152° |
| 2026-04-30 18:19 | 40.47782 | -3.57278 | 2002 ft | 12 kts | 144° |
| 2026-04-30 18:19 | 40.47704 | -3.57198 | 1999 ft | 15 kts | 142° |